createdAt,value
2018-03-21T00:02:14.660Z,25.37
2018-03-21T00:04:41.033Z,27.00
2018-03-21T00:07:07.257Z,33.65
2018-03-21T00:09:34.069Z,26.95
2018-03-21T00:12:00.518Z,28.92
2018-03-21T00:14:26.710Z,26.20
2018-03-21T00:16:52.876Z,41.72
2018-03-21T00:19:19.739Z,34.30
2018-03-21T00:21:45.865Z,28.98
2018-03-21T00:24:12.012Z,18.87
2018-03-21T00:26:38.167Z,21.73
2018-03-21T00:29:04.473Z,19.73
2018-03-21T00:31:31.428Z,20.42
2018-03-21T00:33:57.566Z,26.35
2018-03-21T00:36:23.701Z,24.02
2018-03-21T00:38:50.088Z,21.73
2018-03-21T00:41:16.209Z,17.15
2018-03-21T00:43:43.074Z,15.38
2018-03-21T00:46:09.918Z,13.15
2018-03-21T00:48:36.024Z,18.77
2018-03-21T00:51:02.432Z,13.68
2018-03-21T00:53:28.540Z,18.95
2018-03-21T00:55:54.664Z,11.45
2018-03-21T00:58:20.767Z,14.38
2018-03-21T01:00:46.920Z,17.27
2018-03-21T01:03:13.077Z,11.12
2018-03-21T01:05:39.194Z,10.93
2018-03-21T01:08:05.293Z,14.55
2018-03-21T01:10:31.436Z,6.20
2018-03-21T01:12:57.539Z,24.48
2018-03-21T01:15:24.407Z,5.90
2018-03-21T01:17:51.312Z,9.63
2018-03-21T01:20:17.416Z,10.35
2018-03-21T01:22:44.301Z,8.40
2018-03-21T01:25:10.439Z,7.05
2018-03-21T01:27:36.557Z,11.52
2018-03-21T01:30:02.706Z,8.70
2018-03-21T01:32:28.880Z,9.75
2018-03-21T01:34:55.017Z,6.10
2018-03-21T01:37:21.148Z,8.55
2018-03-21T01:39:47.373Z,8.45
2018-03-21T01:42:13.480Z,10.95
2018-03-21T01:44:39.584Z,9.60
2018-03-21T01:47:05.782Z,11.52
2018-03-21T01:49:32.612Z,11.27
2018-03-21T01:51:59.499Z,19.83
2018-03-21T01:54:25.918Z,20.10
2018-03-21T01:56:52.068Z,36.58
2018-03-21T01:59:18.941Z,32.25
2018-03-21T02:01:45.344Z,40.42
2018-03-21T02:04:11.504Z,19.58
2018-03-21T02:06:37.644Z,29.37
2018-03-21T02:09:03.797Z,29.00
2018-03-21T02:11:29.901Z,25.45
2018-03-21T02:13:56.742Z,26.65
2018-03-21T02:16:22.883Z,24.60
2018-03-21T02:18:48.995Z,15.40
2018-03-21T02:21:15.384Z,15.18
2018-03-21T02:23:42.254Z,19.33
2018-03-21T02:26:09.108Z,31.33
2018-03-21T02:28:36.030Z,20.65
2018-03-21T02:31:02.185Z,27.95
2018-03-21T02:33:28.356Z,27.42
2018-03-21T02:35:54.488Z,23.77
2018-03-21T02:38:20.645Z,25.85
2018-03-21T02:40:46.817Z,21.05
2018-03-21T02:43:13.678Z,34.17
2018-03-21T02:45:39.843Z,25.08
2018-03-21T02:48:06.047Z,22.48
2018-03-21T02:50:32.169Z,22.75
2018-03-21T02:52:58.278Z,24.40
2018-03-21T02:55:25.138Z,26.73
2018-03-21T02:57:51.308Z,24.73
2018-03-21T03:00:17.418Z,22.90
2018-03-21T03:02:44.235Z,19.40
2018-03-21T03:05:10.349Z,22.92
2018-03-21T03:07:36.485Z,23.30
2018-03-21T03:10:02.620Z,34.90
2018-03-21T03:12:28.726Z,34.08
2018-03-21T03:14:54.850Z,34.53
2018-03-21T03:17:21.764Z,38.15
2018-03-21T03:19:47.872Z,26.55
2018-03-21T03:22:14.004Z,26.92
2018-03-21T03:24:40.099Z,19.73
2018-03-21T03:27:06.236Z,23.27
2018-03-21T03:29:32.353Z,32.22
2018-03-21T03:31:58.515Z,12.82
2018-03-21T03:34:24.685Z,21.12
2018-03-21T03:36:50.805Z,12.75
2018-03-21T03:39:16.943Z,13.20
2018-03-21T03:41:43.810Z,17.70
2018-03-21T03:44:10.733Z,14.05
2018-03-21T03:46:36.904Z,14.35
2018-03-21T03:49:03.092Z,17.10
2018-03-21T03:51:29.270Z,13.05
2018-03-21T03:53:59.361Z,20.65
2018-03-21T03:56:25.759Z,21.87
2018-03-21T03:58:51.914Z,20.30
2018-03-21T04:01:18.751Z,14.82
2018-03-21T04:03:45.594Z,18.27
2018-03-21T04:06:11.688Z,21.95
2018-03-21T04:08:37.836Z,25.55
2018-03-21T04:11:03.993Z,20.88
2018-03-21T04:13:30.100Z,21.25
2018-03-21T04:15:56.203Z,21.37
2018-03-21T04:18:22.331Z,14.55
2018-03-21T04:20:48.424Z,18.87
2018-03-21T04:23:14.632Z,17.33
2018-03-21T04:25:40.747Z,10.90
2018-03-21T04:28:06.912Z,15.73
2018-03-21T04:30:33.067Z,16.10
2018-03-21T04:32:59.306Z,15.75
2018-03-21T04:35:25.433Z,20.80
2018-03-21T04:37:51.615Z,17.15
2018-03-21T04:40:17.725Z,16.90
2018-03-21T04:42:43.863Z,18.83
2018-03-21T04:45:10.005Z,25.40
2018-03-21T04:47:36.144Z,12.90
2018-03-21T04:50:02.310Z,20.52
2018-03-21T04:52:28.439Z,18.52
2018-03-21T04:54:54.601Z,33.00
2018-03-21T04:57:20.706Z,19.98
2018-03-21T04:59:46.859Z,13.10
2018-03-21T05:02:13.015Z,12.77
2018-03-21T05:04:39.155Z,14.02
2018-03-21T05:07:05.360Z,15.52
2018-03-21T05:09:31.440Z,13.10
2018-03-21T05:11:57.559Z,12.10
2018-03-21T05:14:23.669Z,21.98
2018-03-21T05:16:49.773Z,16.10
2018-03-21T05:19:15.907Z,21.90
2018-03-21T05:21:42.027Z,15.27
2018-03-21T05:24:08.152Z,25.00
2018-03-21T05:26:34.275Z,18.98
2018-03-21T05:29:00.386Z,14.40
2018-03-21T05:31:26.512Z,17.45
2018-03-21T05:33:53.368Z,17.12
2018-03-21T05:36:19.450Z,17.25
2018-03-21T05:38:45.564Z,24.20
2018-03-21T05:41:11.707Z,30.50
2018-03-21T05:43:37.817Z,22.08
2018-03-21T05:46:03.925Z,18.62
2018-03-21T05:48:30.913Z,18.05
2018-03-21T05:50:57.261Z,18.25
2018-03-21T05:53:23.430Z,21.37
2018-03-21T05:55:49.581Z,18.98
2018-03-21T05:58:15.800Z,20.50
2018-03-21T06:00:41.928Z,22.58
2018-03-21T06:03:08.069Z,20.52
2018-03-21T06:05:34.268Z,17.73
2018-03-21T06:08:00.428Z,20.12
2018-03-21T06:10:27.339Z,27.02
2018-03-21T06:12:53.448Z,16.98
2018-03-21T06:15:20.330Z,15.52
2018-03-21T06:17:46.440Z,18.12
2018-03-21T06:20:12.586Z,15.43
2018-03-21T06:22:38.708Z,22.00
2018-03-21T06:25:04.875Z,33.35
2018-03-21T06:27:31.223Z,16.37
2018-03-21T06:29:58.352Z,19.58
2018-03-21T06:32:24.562Z,29.83
2018-03-21T06:34:50.689Z,12.70
2018-03-21T06:37:16.880Z,15.50
2018-03-21T06:39:43.127Z,18.30
2018-03-21T06:42:09.430Z,16.73
2018-03-21T06:44:37.324Z,16.98
2018-03-21T06:47:03.716Z,53.10
2018-03-21T06:49:29.833Z,17.65
2018-03-21T06:51:56.123Z,17.95
2018-03-21T06:54:23.093Z,25.08
2018-03-21T06:56:49.235Z,24.55
2018-03-21T06:59:15.508Z,20.27
2018-03-21T07:01:41.615Z,26.00
2018-03-21T07:04:08.795Z,25.58
2018-03-21T07:06:34.919Z,36.15
2018-03-21T07:09:01.099Z,23.35
2018-03-21T07:11:27.237Z,14.43
2018-03-21T07:14:05.483Z,22.90
2018-03-21T07:16:40.627Z,23.05
2018-03-21T07:19:06.773Z,33.30
2018-03-21T07:21:32.904Z,48.15
2018-03-21T07:23:58.986Z,27.23
2018-03-21T07:26:25.108Z,16.12
2018-03-21T07:28:51.224Z,17.05
2018-03-21T07:31:17.462Z,16.15
2018-03-21T07:33:43.579Z,23.58
2018-03-21T07:36:10.383Z,20.35
2018-03-21T07:38:36.696Z,19.65
2018-03-21T07:41:02.933Z,22.55
2018-03-21T07:43:29.068Z,27.85
2018-03-21T07:45:55.201Z,19.20
2018-03-21T07:48:21.352Z,21.60
2018-03-21T07:50:47.493Z,33.80
2018-03-21T07:53:13.597Z,45.12
2018-03-21T07:55:40.520Z,61.70
2018-03-21T07:58:06.659Z,61.67
2018-03-21T08:00:34.558Z,82.47
2018-03-21T08:03:00.916Z,106.07
2018-03-21T08:05:28.465Z,96.63
2018-03-21T08:07:54.646Z,133.50
2018-03-21T08:10:20.788Z,150.77
2018-03-21T08:12:46.930Z,153.90
2018-03-21T08:15:13.064Z,135.40
2018-03-21T08:17:39.239Z,167.93
2018-03-21T08:20:05.401Z,183.45
2018-03-21T08:22:32.551Z,197.02
2018-03-21T08:24:58.728Z,204.65
2018-03-21T08:27:25.577Z,219.00
2018-03-21T08:29:51.732Z,200.77
2018-03-21T08:32:17.978Z,202.65
2018-03-21T08:34:45.341Z,169.80
2018-03-21T08:37:12.329Z,197.93
2018-03-21T08:39:38.457Z,167.15
2018-03-21T08:42:04.603Z,172.27
2018-03-21T08:44:33.518Z,186.82
2018-03-21T08:46:59.856Z,202.25
2018-03-21T08:49:26.777Z,190.95
2018-03-21T08:51:52.910Z,196.30
2018-03-21T08:54:19.111Z,188.75
2018-03-21T08:56:45.239Z,208.15
2018-03-21T08:59:12.243Z,183.05
2018-03-21T09:01:39.117Z,153.65
2018-03-21T09:04:05.265Z,158.05
2018-03-21T09:06:31.417Z,165.52
2018-03-21T09:08:57.555Z,155.60
2018-03-21T09:11:25.220Z,163.37
2018-03-21T09:13:53.551Z,164.50
2018-03-21T09:16:19.725Z,167.52
2018-03-21T09:18:45.933Z,163.05
2018-03-21T09:21:13.873Z,137.93
2018-03-21T09:23:41.541Z,173.18
2018-03-21T09:26:09.382Z,156.77
2018-03-21T09:28:36.538Z,142.73
2018-03-21T09:31:06.195Z,154.93
2018-03-21T09:33:32.429Z,122.22
2018-03-21T09:35:59.375Z,115.45
2018-03-21T09:38:25.461Z,123.87
2018-03-21T09:40:51.588Z,90.12
2018-03-21T09:43:17.768Z,100.22
2018-03-21T09:45:43.882Z,84.70
2018-03-21T09:48:10.070Z,105.35
2018-03-21T09:50:38.049Z,81.72
2018-03-21T09:53:05.201Z,78.20
2018-03-21T09:55:32.592Z,82.35
2018-03-21T09:57:58.823Z,88.65
2018-03-21T10:00:25.002Z,76.55
2018-03-21T10:02:52.359Z,79.10
2018-03-21T10:05:18.635Z,77.95
2018-03-21T10:07:44.812Z,74.97
2018-03-21T10:10:11.805Z,57.35
2018-03-21T10:12:37.935Z,70.00
2018-03-21T10:15:04.115Z,65.47
2018-03-21T10:17:30.383Z,65.57
2018-03-21T10:19:56.536Z,64.15
2018-03-21T10:22:22.759Z,88.90
2018-03-21T10:24:48.991Z,66.87
2018-03-21T10:27:15.937Z,83.35
2018-03-21T10:29:42.087Z,85.85
2018-03-21T10:32:08.224Z,86.82
2018-03-21T10:34:34.413Z,73.43
2018-03-21T10:37:01.134Z,70.60
2018-03-21T10:39:27.615Z,78.37
2018-03-21T10:41:53.830Z,72.75
2018-03-21T10:44:20.865Z,67.62
2018-03-21T10:46:47.085Z,71.43
2018-03-21T10:49:13.215Z,51.63
2018-03-21T10:51:39.335Z,56.37
2018-03-21T10:54:05.497Z,59.40
2018-03-21T10:56:32.341Z,61.73
2018-03-21T10:58:58.737Z,82.75
2018-03-21T11:01:31.790Z,60.22
2018-03-21T11:03:58.020Z,70.82
2018-03-21T11:06:24.182Z,66.22
2018-03-21T11:08:50.379Z,76.67
2018-03-21T11:11:17.489Z,57.38
2018-03-21T11:13:43.724Z,62.40
2018-03-21T11:16:09.944Z,61.30
2018-03-21T11:18:36.141Z,71.17
2018-03-21T11:21:02.352Z,61.00
2018-03-21T11:23:28.479Z,65.93
2018-03-21T11:25:54.608Z,65.45
2018-03-21T11:28:20.760Z,60.50
2018-03-21T11:30:46.948Z,61.30
2018-03-21T11:33:13.145Z,66.80
2018-03-21T11:35:39.263Z,71.77
2018-03-21T11:38:05.496Z,67.55
2018-03-21T11:40:32.743Z,78.67
2018-03-21T11:42:59.041Z,78.57
2018-03-21T11:45:25.243Z,72.73
2018-03-21T11:47:51.379Z,77.30
2018-03-21T11:50:17.568Z,82.93
2018-03-21T11:52:43.692Z,84.93
2018-03-21T11:55:09.916Z,72.20
2018-03-21T11:57:36.030Z,84.87
2018-03-21T12:00:03.200Z,73.13
2018-03-21T12:02:30.192Z,62.87
2018-03-21T12:04:57.280Z,68.93
2018-03-21T12:07:28.353Z,58.07
2018-03-21T12:09:55.103Z,50.57
2018-03-21T12:12:22.707Z,70.00
2018-03-21T12:14:49.136Z,56.90
2018-03-21T12:17:16.007Z,53.53
2018-03-21T12:19:42.120Z,62.57
2018-03-21T12:22:08.292Z,67.37
2018-03-21T12:24:35.092Z,83.73
2018-03-21T12:27:01.474Z,71.00
2018-03-21T12:29:27.724Z,56.47
2018-03-21T12:31:53.912Z,65.13
2018-03-21T12:34:20.356Z,48.00
2018-03-21T12:36:47.106Z,57.70
2018-03-21T12:39:15.740Z,61.30
2018-03-21T12:41:42.787Z,56.50
2018-03-21T12:44:09.106Z,48.50
2018-03-21T12:46:35.477Z,50.70
2018-03-21T12:49:02.285Z,45.23
2018-03-21T12:51:28.523Z,46.20
2018-03-21T12:53:54.703Z,64.40
2018-03-21T12:56:20.959Z,51.90
2018-03-21T12:58:47.298Z,47.97
2018-03-21T13:01:13.569Z,64.30
2018-03-21T13:03:39.685Z,46.13
2018-03-21T13:06:06.690Z,48.60
2018-03-21T13:08:33.080Z,50.03
2018-03-21T13:11:00.533Z,40.07
2018-03-21T13:13:45.969Z,35.97
2018-03-21T13:16:16.906Z,33.70
2018-03-21T13:21:41.223Z,43.87
2018-03-21T13:24:07.945Z,42.93
2018-03-21T13:26:36.183Z,43.87
2018-03-21T13:29:03.281Z,48.10
2018-03-21T13:31:29.785Z,38.87
2018-03-21T13:33:56.162Z,37.33
2018-03-21T13:36:23.747Z,48.57
2018-03-21T13:38:50.282Z,39.20
2018-03-21T13:41:17.007Z,37.90
2018-03-21T13:43:43.530Z,35.73
2018-03-21T13:46:10.255Z,50.80
2018-03-21T13:48:36.559Z,41.00
2018-03-21T13:51:14.980Z,51.40
2018-03-21T13:53:41.324Z,56.30
2018-03-21T13:56:07.739Z,42.83
2018-03-21T13:58:34.436Z,40.90
2018-03-21T14:01:02.933Z,36.60
2018-03-21T14:03:32.853Z,34.87
2018-03-21T14:05:59.237Z,36.67
2018-03-21T14:08:36.938Z,43.37
2018-03-21T14:11:03.561Z,33.57
2018-03-21T14:13:30.476Z,33.70
2018-03-21T14:16:14.080Z,25.60
2018-03-21T14:18:40.900Z,36.20
2018-03-21T14:21:07.230Z,31.33
2018-03-21T15:12:20.801Z,29.70
2018-03-21T15:14:47.027Z,28.33
2018-03-21T15:17:13.328Z,36.53
2018-03-21T15:28:21.806Z,30.90
2018-03-21T15:39:56.253Z,32.60
2018-03-21T15:42:22.691Z,31.47
2018-03-21T15:44:51.326Z,32.77
2018-03-21T15:47:18.806Z,37.10
2018-03-21T15:49:45.452Z,29.60
2018-03-21T16:04:23.933Z,32.83
2018-03-21T16:06:50.381Z,23.33
2018-03-21T16:09:16.972Z,26.93
2018-03-21T16:36:08.375Z,34.10
2018-03-21T16:38:34.611Z,25.77
2018-03-21T16:41:01.977Z,23.43
2018-03-21T16:43:30.287Z,26.83
2018-03-21T16:45:56.562Z,24.17
2018-03-21T16:48:22.879Z,24.50
2018-03-21T16:50:49.255Z,22.27
2018-03-21T16:53:15.560Z,44.90
2018-03-21T16:55:42.818Z,50.63
2018-03-21T16:58:09.737Z,26.20
2018-03-21T17:00:36.176Z,30.07
2018-03-21T17:03:02.862Z,43.83
2018-03-21T17:05:34.065Z,32.33
2018-03-21T17:08:00.608Z,25.90
2018-03-21T17:12:58.098Z,25.63
2018-03-21T17:15:24.737Z,29.60
2018-03-21T17:17:51.044Z,26.83
2018-03-21T17:20:18.327Z,31.47
2018-03-21T17:22:44.727Z,24.17
2018-03-21T17:25:11.300Z,30.73
2018-03-21T17:36:51.249Z,37.60
2018-03-21T17:39:17.735Z,35.50
2018-03-21T17:48:00.808Z,28.13
2018-03-21T17:59:05.138Z,33.00
2018-03-21T18:16:44.020Z,36.50
2018-03-21T18:31:23.951Z,47.27
2018-03-21T18:33:50.223Z,33.10
2018-03-21T18:36:17.430Z,46.53
2018-03-21T18:38:43.775Z,47.17
2018-03-21T18:41:09.908Z,49.67
2018-03-21T18:43:36.133Z,78.50
2018-03-21T18:46:02.355Z,60.70
2018-03-21T18:48:28.981Z,71.33
2018-03-21T18:50:55.185Z,54.63
2018-03-21T18:53:21.556Z,45.80
2018-03-21T18:55:47.952Z,34.63
2018-03-21T18:58:14.266Z,37.33
2018-03-21T19:00:40.695Z,36.63
2018-03-21T19:03:06.902Z,38.80
2018-03-21T19:05:33.017Z,51.27
2018-03-21T19:07:59.182Z,34.30
2018-03-21T19:10:25.309Z,51.60
2018-03-21T19:12:51.515Z,44.22
2018-03-21T19:15:17.687Z,42.20
2018-03-21T19:17:44.979Z,39.95
2018-03-21T19:20:11.216Z,43.87
2018-03-21T19:22:37.749Z,57.47
2018-03-21T19:25:04.062Z,49.58
2018-03-21T19:33:08.925Z,50.90
2018-03-21T19:35:35.859Z,48.03
2018-03-21T19:38:02.500Z,38.95
2018-03-21T19:40:28.672Z,37.95
2018-03-21T19:42:54.963Z,38.63
2018-03-21T19:45:21.188Z,35.73
2018-03-21T19:47:47.944Z,51.03
2018-03-21T19:50:16.454Z,42.83
2018-03-21T19:52:42.821Z,37.00
2018-03-21T19:55:09.837Z,42.13
2018-03-21T19:57:36.855Z,48.50
2018-03-21T20:00:03.224Z,63.77
2018-03-21T20:02:29.836Z,55.13
2018-03-21T20:04:57.104Z,47.13
2018-03-21T20:07:24.302Z,56.03
2018-03-21T20:09:50.632Z,56.40
2018-03-21T20:12:17.225Z,46.83
2018-03-21T20:14:43.537Z,38.87
2018-03-21T20:17:10.370Z,44.80
2018-03-21T20:19:36.879Z,46.90
2018-03-21T20:22:03.171Z,38.47
2018-03-21T20:24:29.555Z,44.27
2018-03-21T20:26:56.066Z,46.40
2018-03-21T20:29:22.476Z,40.60
2018-03-21T20:31:48.831Z,59.53
2018-03-21T20:34:15.393Z,39.28
2018-03-21T20:58:10.084Z,45.67
2018-03-21T21:00:36.551Z,89.53
2018-03-21T21:03:20.632Z,56.63
2018-03-21T21:05:47.157Z,39.27
2018-03-21T21:20:40.886Z,105.25
2018-03-21T21:23:07.620Z,97.72
2018-03-21T21:25:33.937Z,101.80
2018-03-21T21:28:00.664Z,97.10
2018-03-21T21:30:28.574Z,74.22
2018-03-21T21:32:55.256Z,57.50
2018-03-21T21:35:21.521Z,74.95
2018-03-21T21:37:47.696Z,68.65
2018-03-21T21:40:13.900Z,63.53
2018-03-21T21:42:40.348Z,50.55
2018-03-21T21:47:38.376Z,63.80
2018-03-21T21:50:04.539Z,42.17
2018-03-21T21:52:30.898Z,56.90
2018-03-21T21:54:57.853Z,53.22
2018-03-21T21:57:24.015Z,38.80
2018-03-21T21:59:50.187Z,65.65
2018-03-21T22:02:16.655Z,47.80
2018-03-21T22:04:43.620Z,61.53
2018-03-21T22:07:09.764Z,44.80
2018-03-21T22:09:36.232Z,49.80
2018-03-21T22:12:02.425Z,48.40
2018-03-21T22:14:28.740Z,59.55
2018-03-21T22:16:54.956Z,65.57
2018-03-21T22:19:21.889Z,56.08
2018-03-21T22:21:48.076Z,63.50
2018-03-21T22:24:14.291Z,58.75
2018-03-21T22:26:40.525Z,48.15
2018-03-21T22:29:06.692Z,60.55
2018-03-21T22:31:32.868Z,59.75
2018-03-21T22:33:59.067Z,53.60
2018-03-21T22:36:26.827Z,57.17
2018-03-21T22:38:53.004Z,59.28
2018-03-21T22:41:19.233Z,47.95
2018-03-21T22:43:45.425Z,69.05
2018-03-21T22:46:11.644Z,60.03
2018-03-21T22:48:37.824Z,56.00
2018-03-21T22:51:04.812Z,67.47
2018-03-21T22:53:30.986Z,72.72
2018-03-21T22:55:57.235Z,66.18
2018-03-21T22:58:23.519Z,61.78
2018-03-21T23:00:50.395Z,54.65
2018-03-21T23:03:16.902Z,68.12
2018-03-21T23:05:43.060Z,72.75
2018-03-21T23:08:10.013Z,66.03
2018-03-21T23:10:36.184Z,62.60
2018-03-21T23:13:02.491Z,57.47
2018-03-21T23:15:28.722Z,66.57
2018-03-21T23:17:54.885Z,58.05
2018-03-21T23:20:21.042Z,62.22
2018-03-21T23:22:47.207Z,63.58
2018-03-21T23:25:13.344Z,63.42
2018-03-21T23:27:39.856Z,59.35
2018-03-21T23:30:06.776Z,69.53
2018-03-21T23:32:32.940Z,61.30
2018-03-21T23:35:01.200Z,54.22
2018-03-21T23:37:28.817Z,65.85
2018-03-21T23:39:55.018Z,63.55
2018-03-21T23:42:21.198Z,71.35
2018-03-21T23:44:47.404Z,71.43
2018-03-21T23:47:13.541Z,62.85
2018-03-21T23:49:39.741Z,66.87
2018-03-21T23:52:05.916Z,74.35
2018-03-21T23:54:33.484Z,76.82
2018-03-21T23:57:00.708Z,80.57
